createdAt,value
2022-11-12T00:00:47.381Z,0.00
2022-11-12T00:01:54.602Z,0.00
2022-11-12T00:02:47.331Z,0.00
2022-11-12T00:03:47.349Z,0.00
2022-11-12T00:04:47.306Z,0.00
2022-11-12T00:05:47.314Z,0.00
2022-11-12T00:06:47.649Z,0.00
2022-11-12T00:07:47.285Z,0.00
2022-11-12T00:08:47.260Z,0.00
2022-11-12T00:09:47.284Z,0.00
2022-11-12T00:10:47.226Z,0.00
2022-11-12T00:11:47.491Z,0.00
2022-11-12T00:12:47.211Z,0.00
2022-11-12T00:13:47.215Z,0.00
2022-11-12T00:14:47.187Z,0.00
2022-11-12T00:15:47.170Z,0.00
2022-11-12T00:16:47.162Z,0.00
2022-11-12T00:17:47.406Z,0.00
2022-11-12T00:18:47.135Z,0.00
2022-11-12T00:19:47.148Z,0.00
2022-11-12T00:20:47.096Z,0.00
2022-11-12T00:21:47.118Z,0.00
2022-11-12T00:22:47.096Z,0.00
2022-11-12T00:23:47.247Z,0.00
2022-11-12T00:24:47.055Z,0.00
2022-11-12T00:25:47.203Z,0.00
2022-11-12T00:26:47.026Z,0.00
2022-11-12T00:27:47.028Z,0.00
2022-11-12T00:28:47.224Z,0.00
2022-11-12T00:29:47.015Z,0.00
2022-11-12T00:30:46.971Z,0.00
2022-11-12T00:31:46.972Z,0.00
2022-11-12T00:32:46.941Z,0.00
2022-11-12T00:33:47.249Z,0.00
2022-11-12T00:34:46.939Z,0.00
2022-11-12T00:35:46.912Z,0.00
2022-11-12T00:36:46.902Z,0.00
2022-11-12T00:37:46.892Z,0.00
2022-11-12T00:38:46.877Z,0.00
2022-11-12T00:39:47.046Z,0.00
2022-11-12T00:40:46.849Z,0.00
2022-11-12T00:41:46.837Z,0.00
2022-11-12T00:42:46.820Z,0.00
2022-11-12T00:43:46.829Z,0.00
2022-11-12T00:44:46.977Z,0.00
2022-11-12T00:45:46.796Z,0.00
2022-11-12T00:46:46.767Z,0.00
2022-11-12T00:47:46.765Z,0.00
2022-11-12T00:48:46.755Z,0.00
2022-11-12T00:49:46.914Z,0.00
2022-11-12T00:50:46.723Z,0.00
2022-11-12T00:51:46.718Z,0.00
2022-11-12T00:52:46.695Z,0.00
2022-11-12T00:53:46.703Z,0.00
2022-11-12T00:54:46.861Z,0.00
2022-11-12T00:55:46.661Z,0.00
2022-11-12T00:56:46.713Z,0.00
2022-11-12T00:57:47.545Z,0.00
2022-11-12T00:58:46.617Z,0.00
2022-11-12T00:59:46.808Z,0.00
2022-11-12T01:00:46.633Z,0.00
2022-11-12T01:01:46.597Z,0.00
2022-11-12T01:02:51.016Z,0.00
2022-11-12T01:03:47.600Z,0.00
2022-11-12T01:04:46.739Z,0.00
2022-11-12T01:05:46.558Z,0.00
2022-11-12T01:06:46.564Z,0.00
2022-11-12T01:07:48.436Z,0.00
2022-11-12T01:08:47.594Z,0.00
2022-11-12T01:09:46.667Z,0.00
2022-11-12T01:10:46.473Z,0.00
2022-11-12T01:11:46.453Z,0.00
2022-11-12T01:12:46.443Z,0.00
2022-11-12T01:13:46.432Z,0.00
2022-11-12T01:14:46.602Z,0.00
2022-11-12T01:15:46.409Z,0.00
2022-11-12T01:16:46.394Z,0.00
2022-11-12T01:17:46.380Z,0.00
2022-11-12T01:18:46.367Z,0.00
2022-11-12T01:19:46.531Z,0.00
2022-11-12T01:20:46.351Z,0.00
2022-11-12T01:21:46.360Z,0.00
2022-11-12T01:22:46.490Z,0.00
2022-11-12T01:23:46.315Z,0.00
2022-11-12T01:24:46.476Z,0.00
2022-11-12T01:25:47.308Z,0.00
2022-11-12T01:26:46.266Z,0.00
2022-11-12T01:27:46.277Z,0.00
2022-11-12T01:28:46.236Z,0.00
2022-11-12T01:29:46.493Z,0.00
2022-11-12T01:30:46.216Z,0.00
2022-11-12T01:31:46.214Z,0.00
2022-11-12T01:32:46.187Z,0.00
2022-11-12T01:33:46.182Z,0.00
2022-11-12T01:34:46.344Z,0.00
2022-11-12T01:35:46.163Z,0.00
2022-11-12T01:36:46.149Z,0.00
2022-11-12T01:37:46.900Z,0.00
2022-11-12T01:38:46.117Z,0.00
2022-11-12T01:39:46.379Z,0.00
2022-11-12T01:40:47.032Z,0.00
2022-11-12T01:41:47.006Z,0.00
2022-11-12T01:42:46.065Z,0.00
2022-11-12T01:43:46.069Z,0.00
2022-11-12T01:44:46.038Z,0.00
2022-11-12T01:45:46.222Z,0.00
2022-11-12T01:46:46.016Z,0.00
2022-11-12T01:47:46.003Z,0.00
2022-11-12T01:48:45.988Z,0.00
2022-11-12T01:49:51.743Z,0.00
2022-11-12T01:50:47.492Z,0.00
2022-11-12T01:51:45.953Z,0.00
2022-11-12T01:52:45.942Z,0.00
2022-11-12T01:53:46.875Z,0.00
2022-11-12T01:54:45.913Z,0.00
2022-11-12T01:55:46.081Z,0.00
2022-11-12T01:56:45.894Z,0.00
2022-11-12T01:57:45.887Z,0.00
2022-11-12T01:58:45.860Z,0.00
2022-11-12T01:59:45.859Z,0.00
2022-11-12T02:00:46.065Z,0.00
2022-11-12T02:01:45.844Z,0.00
2022-11-12T02:02:45.820Z,0.00
2022-11-12T02:03:45.810Z,0.00
2022-11-12T02:04:45.786Z,0.00
2022-11-12T02:05:46.486Z,0.00
2022-11-12T02:06:45.979Z,0.00
2022-11-12T02:07:45.761Z,0.00
2022-11-12T02:08:45.734Z,0.00
2022-11-12T02:09:45.722Z,0.00
2022-11-12T02:10:45.716Z,0.00
2022-11-12T02:11:45.875Z,0.00
2022-11-12T02:12:45.684Z,0.00
2022-11-12T02:13:45.689Z,0.00
2022-11-12T02:14:45.662Z,0.00
2022-11-12T02:15:45.658Z,0.00
2022-11-12T02:16:45.813Z,0.00
2022-11-12T02:17:45.624Z,0.00
2022-11-12T02:18:45.619Z,0.00
2022-11-12T02:19:45.600Z,0.00
2022-11-12T02:20:45.586Z,0.00
2022-11-12T02:21:46.048Z,0.00
2022-11-12T02:22:45.560Z,0.00
2022-11-12T02:23:45.546Z,0.00
2022-11-12T02:24:45.532Z,0.00
2022-11-12T02:25:45.523Z,0.00
2022-11-12T02:26:45.511Z,0.00
2022-11-12T02:27:45.676Z,0.00
2022-11-12T02:28:45.484Z,0.00
2022-11-12T02:29:45.473Z,0.00
2022-11-12T02:30:45.461Z,0.00
2022-11-12T02:31:45.446Z,0.00
2022-11-12T02:32:45.610Z,0.00
2022-11-12T02:33:45.431Z,0.00
2022-11-12T02:34:45.413Z,0.00
2022-11-12T02:35:45.398Z,0.00
2022-11-12T02:36:45.394Z,0.00
2022-11-12T02:37:45.571Z,0.00
2022-11-12T02:38:45.349Z,0.00
2022-11-12T02:39:45.347Z,0.00
2022-11-12T02:40:45.328Z,0.00
2022-11-12T02:41:45.316Z,0.00
2022-11-12T02:42:45.486Z,0.00
2022-11-12T02:43:45.294Z,0.00
2022-11-12T02:44:45.286Z,0.00
2022-11-12T02:45:45.275Z,0.00
2022-11-12T02:46:45.261Z,0.00
2022-11-12T02:47:45.435Z,0.00
2022-11-12T02:48:45.241Z,0.00
2022-11-12T02:49:45.216Z,0.00
2022-11-12T02:50:45.211Z,0.00
2022-11-12T02:51:45.195Z,0.00
2022-11-12T02:52:45.372Z,0.00
2022-11-12T02:53:45.161Z,0.00
2022-11-12T02:54:45.150Z,0.00
2022-11-12T02:55:45.150Z,0.00
2022-11-12T02:56:45.129Z,0.00
2022-11-12T02:57:45.356Z,0.00
2022-11-12T02:58:46.100Z,0.00
2022-11-12T02:59:45.098Z,0.00
2022-11-12T03:00:45.383Z,0.00
2022-11-12T03:01:45.098Z,0.00
2022-11-12T03:02:45.058Z,0.00
2022-11-12T03:03:45.046Z,0.00
2022-11-12T03:04:49.286Z,0.00
2022-11-12T03:06:06.192Z,0.00
2022-11-12T03:06:45.057Z,0.00
2022-11-12T03:07:45.715Z,0.00
2022-11-12T03:08:44.974Z,0.00
2022-11-12T03:09:44.964Z,0.00
2022-11-12T03:10:44.960Z,0.00
2022-11-12T03:11:45.135Z,0.00
2022-11-12T03:12:44.932Z,0.00
2022-11-12T03:13:44.914Z,0.00
2022-11-12T03:14:44.925Z,0.00
2022-11-12T03:15:44.900Z,0.00
2022-11-12T03:16:45.089Z,0.00
2022-11-12T03:17:44.865Z,0.00
2022-11-12T03:18:44.852Z,0.00
2022-11-12T03:19:44.870Z,0.00
2022-11-12T03:20:44.832Z,0.00
2022-11-12T03:21:44.818Z,0.00
2022-11-12T03:22:44.987Z,0.00
2022-11-12T03:23:44.786Z,0.00
2022-11-12T03:24:44.789Z,0.00
2022-11-12T03:25:44.768Z,0.00
2022-11-12T03:26:44.758Z,0.00
2022-11-12T03:27:45.913Z,0.00
2022-11-12T03:28:44.733Z,0.00
2022-11-12T03:29:44.722Z,0.00
2022-11-12T03:30:44.702Z,0.00
2022-11-12T03:31:44.695Z,0.00
2022-11-12T03:32:44.682Z,0.00
2022-11-12T03:33:44.844Z,0.00
2022-11-12T03:34:44.651Z,0.00
2022-11-12T03:35:44.641Z,0.00
2022-11-12T03:36:44.633Z,0.00
2022-11-12T03:37:44.621Z,0.00
2022-11-12T03:38:44.789Z,0.00
2022-11-12T03:39:44.588Z,0.00
2022-11-12T03:40:44.581Z,0.00
2022-11-12T03:41:44.559Z,0.00
2022-11-12T03:42:44.557Z,0.00
2022-11-12T03:43:44.536Z,0.00
2022-11-12T03:44:44.708Z,0.00
2022-11-12T03:45:44.509Z,0.00
2022-11-12T03:46:44.662Z,0.00
2022-11-12T03:47:44.496Z,0.00
2022-11-12T03:48:44.495Z,0.00
2022-11-12T03:49:44.733Z,0.00
2022-11-12T03:50:44.477Z,0.00
2022-11-12T03:51:44.436Z,0.00
2022-11-12T03:52:44.425Z,0.00
2022-11-12T03:53:44.415Z,0.00
2022-11-12T03:54:44.412Z,0.00
2022-11-12T03:55:44.573Z,0.00
2022-11-12T03:56:44.378Z,0.00
2022-11-12T03:57:44.370Z,0.00
2022-11-12T03:58:44.354Z,0.00
2022-11-12T03:59:44.337Z,0.00
2022-11-12T04:00:44.545Z,0.00
2022-11-12T04:01:44.311Z,0.00
2022-11-12T04:02:44.298Z,0.00
2022-11-12T04:03:44.291Z,0.00
2022-11-12T04:04:44.280Z,0.00
2022-11-12T04:05:44.478Z,0.00
2022-11-12T04:06:44.289Z,0.00
2022-11-12T04:07:44.233Z,0.00
2022-11-12T04:08:44.226Z,0.00
2022-11-12T04:09:44.217Z,0.00
2022-11-12T04:10:44.201Z,0.00
2022-11-12T04:11:44.366Z,0.00
2022-11-12T04:12:44.171Z,0.00
2022-11-12T04:13:44.162Z,0.00
2022-11-12T04:14:44.153Z,0.00
2022-11-12T04:15:44.145Z,0.00
2022-11-12T04:16:44.321Z,0.00
2022-11-12T04:17:44.116Z,0.00
2022-11-12T04:18:44.099Z,0.00
2022-11-12T04:19:44.081Z,0.00
2022-11-12T04:20:44.070Z,0.00
2022-11-12T04:21:44.060Z,0.00
2022-11-12T04:22:44.242Z,0.00
2022-11-12T04:23:44.040Z,0.00
2022-11-12T04:24:44.017Z,0.00
2022-11-12T04:25:44.010Z,0.00
2022-11-12T04:26:43.998Z,0.00
2022-11-12T04:27:44.167Z,0.00
2022-11-12T04:28:43.976Z,0.00
2022-11-12T04:29:43.985Z,0.00
2022-11-12T04:30:43.948Z,0.00
2022-11-12T04:31:43.934Z,0.00
2022-11-12T04:32:44.121Z,0.00
2022-11-12T04:33:43.904Z,0.00
2022-11-12T04:34:43.984Z,0.00
2022-11-12T04:35:43.892Z,0.00
2022-11-12T04:36:43.879Z,0.00
2022-11-12T04:37:43.856Z,0.00
2022-11-12T04:38:44.053Z,0.00
2022-11-12T04:39:43.840Z,0.00
2022-11-12T04:40:43.824Z,0.00
2022-11-12T04:41:43.826Z,0.00
2022-11-12T04:42:43.790Z,0.00
2022-11-12T04:43:43.976Z,0.00
2022-11-12T04:44:43.768Z,0.00
2022-11-12T04:45:43.756Z,0.00
2022-11-12T04:46:43.747Z,0.00
2022-11-12T04:47:43.733Z,0.00
2022-11-12T04:48:43.716Z,0.00
2022-11-12T04:49:43.947Z,0.00
2022-11-12T04:50:43.697Z,0.00
2022-11-12T04:51:43.681Z,0.00
2022-11-12T04:52:43.667Z,0.00
2022-11-12T04:53:43.651Z,0.00
2022-11-12T04:54:43.842Z,0.00
2022-11-12T04:55:43.631Z,0.00
2022-11-12T04:56:43.618Z,0.00
2022-11-12T04:57:43.608Z,0.00
2022-11-12T04:58:43.592Z,0.00
2022-11-12T04:59:43.583Z,0.00
2022-11-12T05:00:43.752Z,0.00
2022-11-12T05:01:43.660Z,0.00
2022-11-12T05:02:43.553Z,0.00
2022-11-12T05:03:43.526Z,0.00
2022-11-12T05:04:43.517Z,0.00
2022-11-12T05:05:43.690Z,0.00
2022-11-12T05:06:43.523Z,0.00
2022-11-12T05:07:43.476Z,0.00
2022-11-12T05:08:43.477Z,0.00
2022-11-12T05:09:43.458Z,0.00
2022-11-12T05:10:43.447Z,0.00
2022-11-12T05:11:43.614Z,0.00
2022-11-12T05:12:43.420Z,0.00
2022-11-12T05:13:43.418Z,0.00
2022-11-12T05:14:43.401Z,0.00
2022-11-12T05:15:43.371Z,0.00
2022-11-12T05:16:43.566Z,0.00
2022-11-12T05:17:43.350Z,0.00
2022-11-12T05:18:43.365Z,0.00
2022-11-12T05:19:43.344Z,0.00
2022-11-12T05:20:43.332Z,0.00
2022-11-12T05:21:43.786Z,0.00
2022-11-12T05:22:54.270Z,0.00
2022-11-12T05:23:44.269Z,0.00
2022-11-12T05:24:43.266Z,0.00
2022-11-12T05:25:43.248Z,0.00
2022-11-12T05:26:43.238Z,0.00
2022-11-12T05:27:43.446Z,0.00
2022-11-12T05:28:43.217Z,0.00
2022-11-12T05:29:43.199Z,0.00
2022-11-12T05:30:43.186Z,0.00
2022-11-12T05:31:43.175Z,0.00
2022-11-12T05:32:43.375Z,0.00
2022-11-12T05:33:43.146Z,0.00
2022-11-12T05:34:43.147Z,0.00
2022-11-12T05:35:43.124Z,0.00
2022-11-12T05:36:43.111Z,0.00
2022-11-12T05:37:43.280Z,0.00
2022-11-12T05:38:43.091Z,0.00
2022-11-12T05:39:43.078Z,0.00
2022-11-12T05:40:43.071Z,0.00
2022-11-12T05:42:06.211Z,0.00
2022-11-12T05:42:44.249Z,0.00
2022-11-12T05:43:43.026Z,0.00
2022-11-12T05:44:43.057Z,0.00
2022-11-12T05:45:42.994Z,0.00
2022-11-12T05:46:42.987Z,0.00
2022-11-12T05:47:42.976Z,0.00
2022-11-12T05:48:43.145Z,0.00
2022-11-12T05:49:42.946Z,0.00
2022-11-12T05:51:06.199Z,0.00
2022-11-12T05:51:43.924Z,0.00
2022-11-12T05:52:42.917Z,0.00
2022-11-12T05:53:43.093Z,0.00
2022-11-12T05:54:42.884Z,0.00
2022-11-12T05:55:42.873Z,0.00
2022-11-12T05:56:42.859Z,0.00
2022-11-12T05:57:42.857Z,0.00
2022-11-12T05:58:42.841Z,0.00
2022-11-12T05:59:43.001Z,0.00
2022-11-12T06:00:42.820Z,0.00
2022-11-12T06:01:42.798Z,0.00
2022-11-12T06:02:49.925Z,0.00
2022-11-12T06:03:42.820Z,0.00
2022-11-12T06:04:42.917Z,1.00
2022-11-12T06:05:42.749Z,0.00
2022-11-12T06:06:42.796Z,0.00
2022-11-12T06:07:42.677Z,1.00
2022-11-12T06:08:42.666Z,1.00
2022-11-12T06:09:42.883Z,0.00
2022-11-12T06:10:42.689Z,0.00
2022-11-12T06:11:42.624Z,2.00
2022-11-12T06:12:42.607Z,2.00
2022-11-12T06:13:42.597Z,1.00
2022-11-12T06:14:42.596Z,1.00
2022-11-12T06:15:42.754Z,1.00
2022-11-12T06:16:42.567Z,2.00
2022-11-12T06:17:42.568Z,2.00
2022-11-12T06:18:42.533Z,2.00
2022-11-12T06:19:42.529Z,7.00
2022-11-12T06:20:42.694Z,5.00
2022-11-12T06:21:42.487Z,5.00
2022-11-12T06:22:42.530Z,5.00
2022-11-12T06:23:42.471Z,7.00
2022-11-12T06:24:42.528Z,9.00
2022-11-12T06:25:42.630Z,8.00
2022-11-12T06:26:42.429Z,7.00
2022-11-12T06:27:42.419Z,3.00
2022-11-12T06:28:42.446Z,5.00
2022-11-12T06:29:42.389Z,11.00
2022-11-12T06:30:42.379Z,8.00
2022-11-12T06:31:42.556Z,10.00
2022-11-12T06:32:42.375Z,11.00
2022-11-12T06:33:42.338Z,14.00
2022-11-12T06:34:42.338Z,13.00
2022-11-12T06:35:43.292Z,14.00
2022-11-12T06:36:42.502Z,17.00
2022-11-12T06:37:42.300Z,13.00
2022-11-12T06:38:42.283Z,14.00
2022-11-12T06:39:42.263Z,13.00
2022-11-12T06:40:42.253Z,14.00
2022-11-12T06:41:42.444Z,18.00
2022-11-12T06:42:42.237Z,22.00
2022-11-12T06:43:42.228Z,16.00
2022-11-12T06:44:42.202Z,17.00
2022-11-12T06:45:42.182Z,20.00
2022-11-12T06:46:42.182Z,15.00
2022-11-12T06:47:42.369Z,14.00
2022-11-12T06:48:42.157Z,19.00
2022-11-12T06:49:42.138Z,23.00
2022-11-12T06:50:42.151Z,27.00
2022-11-12T06:51:42.109Z,25.00
2022-11-12T06:52:42.307Z,34.00
2022-11-12T06:53:42.085Z,34.00
2022-11-12T06:54:42.075Z,33.00
2022-11-12T06:55:42.058Z,31.00
2022-11-12T06:56:42.060Z,29.00
2022-11-12T06:57:42.226Z,28.00
2022-11-12T06:58:42.032Z,31.00
2022-11-12T06:59:42.013Z,41.00
2022-11-12T07:00:42.021Z,46.00
2022-11-12T07:01:42.069Z,48.00
2022-11-12T07:02:42.274Z,49.00
2022-11-12T07:03:41.978Z,55.00
2022-11-12T07:04:41.954Z,53.00
2022-11-12T07:05:41.940Z,56.00
2022-11-12T07:06:41.940Z,61.00
2022-11-12T07:07:42.430Z,59.00
2022-11-12T07:08:42.857Z,56.00
2022-11-12T07:09:42.259Z,54.00
2022-11-12T07:10:41.912Z,57.00
2022-11-12T07:11:42.440Z,66.00
2022-11-12T07:12:41.958Z,65.00
2022-11-12T07:13:42.399Z,66.00
2022-11-12T07:14:41.819Z,69.00
2022-11-12T07:15:41.818Z,78.00
2022-11-12T07:16:41.796Z,81.00
2022-11-12T07:17:41.786Z,79.00
2022-11-12T07:18:41.944Z,78.00
2022-11-12T07:19:41.759Z,87.00
2022-11-12T07:20:41.747Z,89.00
2022-11-12T07:21:41.743Z,95.00
2022-11-12T07:22:41.715Z,100.00
2022-11-12T07:23:42.003Z,109.00
2022-11-12T07:24:41.695Z,116.00
2022-11-12T07:25:41.682Z,122.00
2022-11-12T07:26:47.092Z,114.00
2022-11-12T07:27:42.657Z,111.00
2022-11-12T07:28:41.649Z,110.00
2022-11-12T07:29:47.952Z,112.00
2022-11-12T07:30:42.621Z,112.00
2022-11-12T07:31:41.619Z,112.00
2022-11-12T07:32:45.891Z,110.00
2022-11-12T07:33:42.594Z,111.00
2022-11-12T07:34:41.754Z,118.00
2022-11-12T07:35:41.559Z,115.00
2022-11-12T07:36:41.593Z,116.00
2022-11-12T07:37:41.528Z,121.00
2022-11-12T07:38:41.514Z,120.00
2022-11-12T07:39:41.713Z,118.00
2022-11-12T07:40:41.513Z,122.00
2022-11-12T07:41:41.520Z,120.00
2022-11-12T07:42:41.467Z,138.00
2022-11-12T07:43:41.463Z,147.00
2022-11-12T07:44:41.605Z,142.00
2022-11-12T07:45:41.611Z,137.00
2022-11-12T07:46:41.451Z,121.00
2022-11-12T07:47:41.402Z,118.00
2022-11-12T07:48:41.393Z,125.00
2022-11-12T07:49:41.424Z,122.00
2022-11-12T07:50:41.644Z,117.00
2022-11-12T07:51:41.392Z,128.00
2022-11-12T07:52:41.341Z,129.00
2022-11-12T07:53:41.344Z,131.00
2022-11-12T07:54:41.319Z,122.00
2022-11-12T07:55:41.327Z,118.00
2022-11-12T07:56:41.475Z,133.00
2022-11-12T07:57:41.350Z,145.00
2022-11-12T07:58:41.296Z,135.00
2022-11-12T07:59:45.833Z,133.00
2022-11-12T08:00:42.245Z,130.00
2022-11-12T08:01:41.701Z,145.00
2022-11-12T08:02:41.215Z,155.00
2022-11-12T08:03:41.204Z,163.00
2022-11-12T08:04:41.236Z,155.00
2022-11-12T08:05:41.328Z,151.00
2022-11-12T08:06:41.563Z,120.00
2022-11-12T08:07:41.231Z,147.00
2022-11-12T08:08:41.132Z,148.00
2022-11-12T08:09:41.133Z,150.00
2022-11-12T08:10:41.112Z,155.00
2022-11-12T08:11:41.459Z,168.00
2022-11-12T08:12:41.090Z,189.00
2022-11-12T08:13:41.079Z,184.00
2022-11-12T08:14:41.061Z,158.00
2022-11-12T08:15:41.057Z,167.00
2022-11-12T08:16:41.035Z,183.00
2022-11-12T08:17:41.239Z,189.00
2022-11-12T08:18:41.008Z,177.00
2022-11-12T08:19:41.015Z,189.00
2022-11-12T08:20:40.988Z,217.00
2022-11-12T08:21:40.988Z,197.00
2022-11-12T08:22:43.835Z,186.00
2022-11-12T08:23:41.954Z,187.00
2022-11-12T08:24:40.948Z,171.00
2022-11-12T08:25:40.924Z,178.00
2022-11-12T08:26:40.920Z,177.00
2022-11-12T08:27:40.933Z,188.00
2022-11-12T08:28:41.072Z,172.00
2022-11-12T08:29:40.877Z,167.00
2022-11-12T08:30:40.878Z,159.00
2022-11-12T08:31:40.859Z,168.00
2022-11-12T08:32:43.119Z,189.00
2022-11-12T08:33:40.900Z,181.00
2022-11-12T08:34:40.809Z,182.00
2022-11-12T08:35:41.289Z,196.00
2022-11-12T08:36:40.808Z,200.00
2022-11-12T08:37:40.781Z,186.00
2022-11-12T08:38:40.760Z,212.00
2022-11-12T08:39:41.378Z,207.00
2022-11-12T08:40:40.743Z,214.00
2022-11-12T08:41:40.724Z,200.00
2022-11-12T08:42:40.716Z,211.00
2022-11-12T08:43:40.694Z,218.00
2022-11-12T08:44:40.871Z,237.00
2022-11-12T08:45:40.678Z,221.00
2022-11-12T08:46:40.653Z,237.00
2022-11-12T08:47:40.642Z,238.00
2022-11-12T08:48:40.631Z,239.00
2022-11-12T08:49:43.802Z,243.00
2022-11-12T08:50:41.781Z,272.00
2022-11-12T08:51:40.589Z,218.00
2022-11-12T08:52:40.581Z,211.00
2022-11-12T08:53:40.589Z,243.00
2022-11-12T08:54:40.555Z,243.00
2022-11-12T08:55:40.752Z,247.00
2022-11-12T08:56:40.529Z,234.00
2022-11-12T08:57:40.517Z,235.00
2022-11-12T08:58:40.504Z,257.00
2022-11-12T08:59:40.487Z,255.00
2022-11-12T09:00:40.477Z,273.00
2022-11-12T09:01:40.737Z,271.00
2022-11-12T09:02:40.453Z,263.00
2022-11-12T09:03:40.441Z,272.00
2022-11-12T09:04:40.423Z,253.00
2022-11-12T09:05:40.412Z,228.00
2022-11-12T09:06:40.576Z,239.00
2022-11-12T09:07:49.952Z,235.00
2022-11-12T09:08:41.383Z,236.00
2022-11-12T09:09:40.362Z,254.00
2022-11-12T09:10:40.361Z,272.00
2022-11-12T09:11:40.339Z,220.00
2022-11-12T09:12:40.501Z,227.00
2022-11-12T09:13:40.328Z,264.00
2022-11-12T09:14:40.297Z,286.00
2022-11-12T09:15:40.286Z,275.00
2022-11-12T09:16:40.280Z,280.00
2022-11-12T09:17:40.447Z,266.00
2022-11-12T09:18:40.249Z,271.00
2022-11-12T09:19:42.899Z,292.00
2022-11-12T09:20:40.227Z,298.00
2022-11-12T09:21:40.219Z,301.00
2022-11-12T09:22:40.374Z,293.00
2022-11-12T09:23:40.187Z,305.00
2022-11-12T09:24:42.586Z,278.00
2022-11-12T09:25:43.891Z,271.00
2022-11-12T09:26:40.814Z,283.00
2022-11-12T09:27:43.189Z,272.00
2022-11-12T09:28:41.171Z,298.00
2022-11-12T09:29:40.145Z,310.00
2022-11-12T09:30:40.099Z,329.00
2022-11-12T09:31:40.090Z,303.00
2022-11-12T09:32:40.072Z,282.00
2022-11-12T09:33:40.090Z,322.00
2022-11-12T09:34:40.049Z,381.00
2022-11-12T09:35:40.037Z,361.00
2022-11-12T09:36:40.201Z,315.00
2022-11-12T09:37:40.024Z,314.00
2022-11-12T09:38:40.180Z,289.00
2022-11-12T09:39:39.989Z,297.00
2022-11-12T09:40:40.002Z,311.00
2022-11-12T09:41:39.988Z,342.00
2022-11-12T09:42:39.955Z,322.00
2022-11-12T09:43:40.074Z,302.00
2022-11-12T09:44:39.935Z,283.00
2022-11-12T09:45:40.009Z,279.00
2022-11-12T09:46:39.925Z,290.00
2022-11-12T09:47:39.892Z,277.00
2022-11-12T09:48:39.908Z,313.00
2022-11-12T09:49:39.914Z,307.00
2022-11-12T09:50:39.871Z,314.00
2022-11-12T09:51:39.841Z,306.00
2022-11-12T09:52:39.821Z,279.00
2022-11-12T09:53:44.073Z,277.00
2022-11-12T09:54:40.067Z,339.00
2022-11-12T09:55:39.979Z,361.00
2022-11-12T09:56:39.797Z,304.00
2022-11-12T09:57:39.762Z,287.00
2022-11-12T09:58:39.764Z,308.00
2022-11-12T09:59:39.753Z,285.00
2022-11-12T10:00:44.784Z,281.00
2022-11-12T10:01:40.775Z,305.00
2022-11-12T10:02:39.701Z,319.00
2022-11-12T10:03:39.694Z,343.00
2022-11-12T10:04:39.683Z,312.00
2022-11-12T10:05:39.836Z,308.00
2022-11-12T10:06:39.708Z,296.00
2022-11-12T10:07:39.642Z,302.00
2022-11-12T10:08:39.612Z,323.00
2022-11-12T10:09:39.605Z,307.00
2022-11-12T10:10:40.004Z,286.00
2022-11-12T10:11:39.588Z,288.00
2022-11-12T10:12:39.567Z,302.00
2022-11-12T10:13:39.558Z,326.00
2022-11-12T10:14:39.543Z,328.00
2022-11-12T10:15:39.530Z,322.00
2022-11-12T10:16:39.707Z,338.00
2022-11-12T10:17:39.534Z,320.00
2022-11-12T10:18:39.488Z,271.00
2022-11-12T10:19:39.489Z,317.00
2022-11-12T10:20:39.465Z,282.00
2022-11-12T10:21:39.661Z,302.00
2022-11-12T10:22:39.507Z,336.00
2022-11-12T10:23:39.459Z,343.00
2022-11-12T10:24:39.484Z,326.00
2022-11-12T10:25:39.444Z,301.00
2022-11-12T10:26:39.420Z,291.00
2022-11-12T10:27:39.657Z,295.00
2022-11-12T10:28:39.629Z,287.00
2022-11-12T10:29:39.344Z,289.00
2022-11-12T10:30:39.333Z,303.00
2022-11-12T10:31:39.343Z,304.00
2022-11-12T10:32:39.502Z,385.00
2022-11-12T10:33:39.301Z,353.00
2022-11-12T10:34:39.280Z,398.00
2022-11-12T10:35:39.288Z,375.00
2022-11-12T10:36:39.259Z,343.00
2022-11-12T10:37:39.240Z,452.00
2022-11-12T10:38:39.425Z,378.00
2022-11-12T10:39:39.226Z,405.00
2022-11-12T10:40:39.369Z,420.00
2022-11-12T10:41:39.196Z,414.00
2022-11-12T10:42:39.176Z,406.00
2022-11-12T10:43:39.453Z,460.00
2022-11-12T10:44:39.153Z,416.00
2022-11-12T10:45:39.143Z,419.00
2022-11-12T10:46:39.123Z,458.00
2022-11-12T10:47:39.114Z,474.00
2022-11-12T10:48:39.094Z,485.00
2022-11-12T10:49:39.272Z,425.00
2022-11-12T10:50:39.074Z,429.00
2022-11-12T10:51:39.064Z,441.00
2022-11-12T10:52:39.049Z,413.00
2022-11-12T10:53:39.041Z,333.00
2022-11-12T10:54:39.242Z,363.00
2022-11-12T10:55:39.012Z,367.00
2022-11-12T10:56:38.998Z,364.00
2022-11-12T10:57:38.998Z,309.00
2022-11-12T10:58:38.979Z,307.00
2022-11-12T10:59:39.146Z,320.00
2022-11-12T11:00:38.949Z,317.00
2022-11-12T11:01:44.459Z,319.00
2022-11-12T11:02:39.915Z,357.00
2022-11-12T11:03:38.957Z,326.00
2022-11-12T11:04:38.897Z,307.00
2022-11-12T11:05:39.067Z,342.00
2022-11-12T11:06:38.925Z,352.00
2022-11-12T11:07:38.923Z,316.00
2022-11-12T11:08:39.318Z,326.00
2022-11-12T11:09:38.855Z,372.00
2022-11-12T11:10:38.828Z,334.00
2022-11-12T11:11:39.157Z,347.00
2022-11-12T11:12:38.790Z,370.00
2022-11-12T11:13:39.233Z,350.00
2022-11-12T11:14:38.992Z,345.00
2022-11-12T11:15:38.749Z,368.00
2022-11-12T11:16:38.738Z,373.00
2022-11-12T11:17:38.920Z,356.00
2022-11-12T11:18:38.728Z,367.00
2022-11-12T11:19:38.698Z,361.00
2022-11-12T11:20:38.685Z,370.00
2022-11-12T11:21:42.254Z,371.00
2022-11-12T11:22:38.679Z,345.00
2022-11-12T11:23:38.853Z,339.00
2022-11-12T11:24:38.637Z,342.00
2022-11-12T11:25:38.616Z,336.00
2022-11-12T11:26:38.615Z,348.00
2022-11-12T11:27:38.594Z,360.00
2022-11-12T11:28:38.586Z,357.00
2022-11-12T11:29:38.834Z,344.00
2022-11-12T11:30:38.572Z,354.00
2022-11-12T11:31:38.541Z,369.00
2022-11-12T11:32:38.530Z,372.00
2022-11-12T11:33:38.512Z,363.00
2022-11-12T11:34:38.499Z,294.00
2022-11-12T11:35:38.690Z,308.00
2022-11-12T11:36:38.513Z,311.00
2022-11-12T11:37:38.460Z,339.00
2022-11-12T11:38:38.448Z,305.00
2022-11-12T11:39:38.438Z,305.00
2022-11-12T11:40:38.425Z,346.00
2022-11-12T11:41:38.698Z,343.00
2022-11-12T11:42:38.396Z,352.00
2022-11-12T11:43:38.417Z,322.00
2022-11-12T11:44:38.379Z,322.00
2022-11-12T11:45:38.363Z,325.00
2022-11-12T11:46:38.353Z,316.00
2022-11-12T11:47:59.504Z,322.00
2022-11-12T11:48:39.324Z,321.00
2022-11-12T11:49:38.302Z,305.00
2022-11-12T11:50:38.292Z,280.00
2022-11-12T11:51:38.311Z,304.00
2022-11-12T11:52:38.338Z,288.00
2022-11-12T11:53:38.477Z,311.00
2022-11-12T11:54:38.249Z,315.00
2022-11-12T11:55:38.234Z,309.00
2022-11-12T11:56:38.220Z,309.00
2022-11-12T11:57:38.239Z,318.00
2022-11-12T11:58:38.200Z,337.00
2022-11-12T11:59:38.357Z,351.00
2022-11-12T12:00:38.164Z,361.00
2022-11-12T12:01:38.148Z,377.00
2022-11-12T12:02:38.135Z,370.00
2022-11-12T12:03:38.139Z,380.00
2022-11-12T12:04:38.314Z,407.00
2022-11-12T12:05:38.096Z,377.00
2022-11-12T12:06:38.108Z,399.00
2022-11-12T12:07:38.155Z,419.00
2022-11-12T12:08:38.060Z,397.00
2022-11-12T12:09:38.052Z,369.00
2022-11-12T12:11:06.326Z,352.00
2022-11-12T12:11:39.025Z,336.00
2022-11-12T12:12:38.010Z,347.00
2022-11-12T12:13:38.010Z,349.00
2022-11-12T12:14:37.981Z,358.00
2022-11-12T12:15:37.970Z,355.00
2022-11-12T12:16:38.321Z,355.00
2022-11-12T12:17:37.979Z,341.00
2022-11-12T12:18:37.927Z,359.00
2022-11-12T12:19:37.918Z,351.00
2022-11-12T12:20:37.906Z,349.00
2022-11-12T12:21:37.894Z,340.00
2022-11-12T12:22:38.055Z,351.00
2022-11-12T12:23:37.863Z,333.00
2022-11-12T12:24:37.857Z,309.00
2022-11-12T12:25:37.920Z,318.00
2022-11-12T12:26:37.824Z,312.00
2022-11-12T12:27:37.811Z,324.00
2022-11-12T12:28:45.042Z,328.00
2022-11-12T12:29:37.804Z,350.00
2022-11-12T12:30:39.688Z,348.00
2022-11-12T12:31:37.759Z,321.00
2022-11-12T12:32:37.843Z,310.00
2022-11-12T12:33:37.739Z,337.00
2022-11-12T12:34:37.879Z,355.00
2022-11-12T12:35:37.718Z,379.00
2022-11-12T12:36:37.704Z,350.00
2022-11-12T12:37:37.698Z,326.00
2022-11-12T12:38:37.716Z,310.00
2022-11-12T12:39:37.667Z,324.00
2022-11-12T12:40:37.830Z,320.00
2022-11-12T12:41:37.648Z,333.00
2022-11-12T12:42:37.621Z,351.00
2022-11-12T12:43:37.789Z,346.00
2022-11-12T12:44:37.597Z,336.00
2022-11-12T12:45:37.584Z,332.00
2022-11-12T12:46:37.756Z,322.00
2022-11-12T12:47:39.424Z,322.00
2022-11-12T12:48:37.701Z,318.00
2022-11-12T12:49:37.568Z,326.00
2022-11-12T12:50:37.521Z,334.00
2022-11-12T12:51:37.703Z,329.00
2022-11-12T12:52:37.540Z,318.00
2022-11-12T12:53:37.655Z,299.00
2022-11-12T12:54:37.468Z,302.00